createdAt,value
2018-07-15T00:01:49.188Z,99373.92
2018-07-15T00:04:18.795Z,99381.20
2018-07-15T00:06:48.200Z,99378.95
2018-07-15T00:09:17.999Z,99374.78
2018-07-15T00:11:47.514Z,99369.45
2018-07-15T00:14:16.743Z,99374.10
2018-07-15T00:16:46.704Z,99371.34
2018-07-15T00:19:15.376Z,99366.17
2018-07-15T00:21:44.147Z,99373.80
2018-07-15T00:24:13.299Z,99371.27
2018-07-15T00:26:41.883Z,99367.04
2018-07-15T00:29:10.437Z,99365.05
2018-07-15T00:31:39.019Z,99371.17
2018-07-15T00:34:07.596Z,99360.89
2018-07-15T00:36:36.173Z,99363.36
2018-07-15T00:39:05.944Z,99354.91
2018-07-15T00:41:34.504Z,99355.41
2018-07-15T00:44:03.215Z,99352.44
2018-07-15T00:46:31.873Z,99352.44
2018-07-15T00:49:00.464Z,99351.38
2018-07-15T00:51:29.141Z,99348.34
2018-07-15T00:53:57.716Z,99348.22
2018-07-15T00:56:26.266Z,99354.38
2018-07-15T00:58:54.837Z,99357.19
2018-07-15T01:01:23.387Z,99357.97
2018-07-15T01:03:51.981Z,99355.70
2018-07-15T01:06:20.554Z,99349.91
2018-07-15T01:08:49.160Z,99357.74
2018-07-15T01:11:17.745Z,99360.80
2018-07-15T01:13:46.324Z,99360.19
2018-07-15T01:16:14.877Z,99357.55
2018-07-15T01:18:43.458Z,99363.92
2018-07-15T01:21:12.008Z,99368.02
2018-07-15T01:23:40.601Z,99370.61
2018-07-15T01:26:09.165Z,99364.24
2018-07-15T01:28:37.733Z,99366.18
2018-07-15T01:31:06.336Z,99362.58
2018-07-15T01:33:34.977Z,99363.30
2018-07-15T01:36:03.584Z,99365.17
2018-07-15T01:38:32.093Z,99366.88
2018-07-15T01:41:00.601Z,99373.92
2018-07-15T01:43:29.544Z,99373.47
2018-07-15T01:45:58.061Z,99383.05
2018-07-15T01:48:26.611Z,99382.69
2018-07-15T01:50:55.140Z,99379.20
2018-07-15T01:53:23.685Z,99374.64
2018-07-15T01:55:52.197Z,99369.23
2018-07-15T01:58:20.738Z,99376.95
2018-07-15T02:00:49.241Z,99368.95
2018-07-15T02:03:17.784Z,99364.83
2018-07-15T02:05:46.300Z,99361.73
2018-07-15T02:08:14.840Z,99356.83
2018-07-15T02:10:43.354Z,99357.89
2018-07-15T02:13:11.917Z,99362.64
2018-07-15T02:15:40.469Z,99356.06
2018-07-15T02:18:09.010Z,99358.51
2018-07-15T02:20:37.532Z,99357.52
2018-07-15T02:23:06.097Z,99351.27
2018-07-15T02:25:34.769Z,99354.38
2018-07-15T02:28:03.397Z,99345.30
2018-07-15T02:30:31.984Z,99348.02
2018-07-15T02:33:00.616Z,99350.47
2018-07-15T02:35:29.688Z,99350.02
2018-07-15T02:37:59.638Z,99345.72
2018-07-15T02:40:28.413Z,99344.45
2018-07-15T02:42:57.133Z,99339.75
2018-07-15T02:45:25.684Z,99336.06
2018-07-15T02:47:54.208Z,99340.33
2018-07-15T02:50:22.780Z,99331.23
2018-07-15T02:52:51.311Z,99335.98
2018-07-15T02:55:19.897Z,99328.59
2018-07-15T02:57:48.452Z,99311.53
2018-07-15T03:00:17.021Z,99325.95
2018-07-15T03:02:45.557Z,99317.34
2018-07-15T03:05:14.128Z,99320.05
2018-07-15T03:07:42.695Z,99324.52
2018-07-15T03:10:11.269Z,99317.56
2018-07-15T03:12:40.097Z,99318.39
2018-07-15T03:15:09.748Z,99320.04
2018-07-15T03:17:38.288Z,99317.52
2018-07-15T03:20:06.853Z,99322.45
2018-07-15T03:22:35.389Z,99317.90
2018-07-15T03:25:04.001Z,99320.46
2018-07-15T03:27:32.528Z,99318.66
2018-07-15T03:30:01.097Z,99318.06
2018-07-15T03:32:29.883Z,99318.48
2018-07-15T03:34:58.456Z,99326.52
2018-07-15T03:37:26.957Z,99335.80
2018-07-15T03:39:55.573Z,99342.14
2018-07-15T03:42:24.056Z,99338.95
2018-07-15T03:44:52.601Z,99346.58
2018-07-15T03:47:21.120Z,99346.31
2018-07-15T03:49:49.652Z,99350.42
2018-07-15T03:52:18.189Z,99343.23
2018-07-15T03:54:46.737Z,99346.47
2018-07-15T03:57:15.245Z,99347.60
2018-07-15T03:59:43.792Z,99339.80
2018-07-15T04:02:12.306Z,99343.99
2018-07-15T04:04:40.862Z,99354.69
2018-07-15T04:07:09.383Z,99345.39
2018-07-15T04:09:37.930Z,99340.38
2018-07-15T04:12:06.443Z,99335.41
2018-07-15T04:14:34.989Z,99334.53
2018-07-15T04:17:03.496Z,99337.94
2018-07-15T04:19:32.092Z,99341.86
2018-07-15T04:22:00.609Z,99336.53
2018-07-15T04:24:30.124Z,99349.03
2018-07-15T04:26:58.647Z,99344.66
2018-07-15T04:29:27.152Z,99339.64
2018-07-15T04:31:55.731Z,99325.81
2018-07-15T04:34:24.276Z,99324.76
2018-07-15T04:36:52.817Z,99331.58
2018-07-15T04:39:21.344Z,99318.86
2018-07-15T04:41:49.946Z,99313.63
2018-07-15T04:44:18.421Z,99327.29
2018-07-15T04:46:46.964Z,99324.04
2018-07-15T04:49:15.473Z,99332.91
2018-07-15T04:51:44.024Z,99328.52
2018-07-15T04:54:12.545Z,99337.95
2018-07-15T04:56:41.087Z,99345.37
2018-07-15T04:59:09.600Z,99343.90
2018-07-15T05:01:41.972Z,99337.33
2018-07-15T05:04:11.439Z,99331.14
2018-07-15T05:06:39.976Z,99331.77
2018-07-15T05:09:08.555Z,99330.03
2018-07-15T05:11:38.041Z,99336.98
2018-07-15T05:14:07.013Z,99333.27
2018-07-15T05:16:35.816Z,99331.75
2018-07-15T05:19:04.384Z,99339.35
2018-07-15T05:21:32.973Z,99337.11
2018-07-15T05:24:01.505Z,99340.19
2018-07-15T05:26:30.242Z,99339.91
2018-07-15T05:28:58.757Z,99342.00
2018-07-15T05:31:27.296Z,99340.58
2018-07-15T05:33:55.840Z,99347.47
2018-07-15T05:36:24.373Z,99346.08
2018-07-15T05:38:52.897Z,99357.44
2018-07-15T05:41:21.483Z,99357.41
2018-07-15T05:43:50.024Z,99358.82
2018-07-15T05:46:18.600Z,99364.07
2018-07-15T05:48:47.117Z,99361.98
2018-07-15T05:51:15.677Z,99360.91
2018-07-15T05:53:44.189Z,99362.80
2018-07-15T05:56:12.735Z,99357.19
2018-07-15T05:58:41.264Z,99346.11
2018-07-15T06:01:09.855Z,99354.40
2018-07-15T06:03:38.378Z,99351.48
2018-07-15T06:06:06.946Z,99354.55
2018-07-15T06:08:35.452Z,99359.17
2018-07-15T06:11:04.257Z,99357.23
2018-07-15T06:13:32.767Z,99358.88
2018-07-15T06:16:01.335Z,99356.88
2018-07-15T06:18:30.444Z,99352.56
2018-07-15T06:20:59.000Z,99357.48
2018-07-15T06:23:27.540Z,99357.12
2018-07-15T06:25:56.064Z,99344.16
2018-07-15T06:28:24.600Z,99349.79
2018-07-15T06:30:53.124Z,99354.38
2018-07-15T06:33:21.676Z,99356.59
2018-07-15T06:35:50.240Z,99350.95
2018-07-15T06:38:18.782Z,99351.56
2018-07-15T06:40:47.372Z,99358.59
2018-07-15T06:43:15.921Z,99353.97
2018-07-15T06:45:45.772Z,99348.98
2018-07-15T06:48:14.309Z,99350.91
2018-07-15T06:50:42.804Z,99353.14
2018-07-15T06:53:11.328Z,99350.83
2018-07-15T06:55:39.824Z,99347.69
2018-07-15T06:58:08.366Z,99346.72
2018-07-15T07:00:36.868Z,99353.27
2018-07-15T07:03:05.486Z,99345.97
2018-07-15T07:05:34.032Z,99344.97
2018-07-15T07:08:02.734Z,99348.02
2018-07-15T07:10:31.240Z,99343.03
2018-07-15T07:13:05.189Z,99336.34
2018-07-15T07:15:33.705Z,99342.20
2018-07-15T07:18:06.554Z,99340.19
2018-07-15T07:20:35.112Z,99339.17
2018-07-15T07:23:03.694Z,99342.17
2018-07-15T07:25:32.241Z,99343.84
2018-07-15T07:28:00.792Z,99352.03
2018-07-15T07:30:29.300Z,99347.68
2018-07-15T07:32:57.876Z,99353.33
2018-07-15T07:35:26.495Z,99360.00
2018-07-15T07:37:55.142Z,99354.56
2018-07-15T07:40:23.748Z,99354.77
2018-07-15T07:42:52.311Z,99354.36
2018-07-15T07:45:21.309Z,99351.30
2018-07-15T07:47:49.872Z,99347.41
2018-07-15T07:50:18.401Z,99348.19
2018-07-15T07:52:46.955Z,99352.33
2018-07-15T07:55:15.488Z,99347.17
2018-07-15T07:57:44.917Z,99346.13
2018-07-15T08:00:13.453Z,99351.14
2018-07-15T08:02:42.041Z,99347.98
2018-07-15T08:05:10.563Z,99344.84
2018-07-15T08:07:39.184Z,99339.88
2018-07-15T08:10:07.729Z,99347.70
2018-07-15T08:12:36.309Z,99344.39
2018-07-15T08:15:07.580Z,99336.09
2018-07-15T08:17:36.373Z,99338.76
2018-07-15T08:20:06.876Z,99335.94
2018-07-15T08:22:38.902Z,99338.16
2018-07-15T08:25:11.192Z,99335.69
2018-07-15T08:27:52.868Z,99325.29
2018-07-15T08:30:36.072Z,99330.59
2018-07-15T08:33:15.074Z,99329.00
2018-07-15T08:35:52.932Z,99332.81
2018-07-15T08:38:32.978Z,99333.62
2018-07-15T08:41:46.335Z,99329.11
2018-07-15T08:44:29.730Z,99328.84
2018-07-15T08:47:11.992Z,99329.78
2018-07-15T08:49:52.064Z,99325.51
2018-07-15T08:52:36.718Z,99329.44
2018-07-15T08:55:18.331Z,99329.70
2018-07-15T08:58:02.105Z,99324.88
2018-07-15T09:03:26.042Z,99326.36
2018-07-15T09:06:08.164Z,99314.86
2018-07-15T09:08:48.553Z,99317.09
2018-07-15T09:11:24.152Z,99314.78
2018-07-15T09:14:01.337Z,99315.29
2018-07-15T09:16:36.130Z,99311.18
2018-07-15T09:19:14.796Z,99318.53
2018-07-15T09:21:51.174Z,99309.72
2018-07-15T09:24:28.031Z,99310.73
2018-07-15T09:27:05.376Z,99311.20
2018-07-15T09:29:41.894Z,99306.87
2018-07-15T09:32:18.393Z,99305.20
2018-07-15T09:34:55.507Z,99304.86
2018-07-15T09:37:30.837Z,99302.17
2018-07-15T09:40:04.876Z,99302.31
2018-07-15T09:42:35.269Z,99304.62
2018-07-15T09:45:04.485Z,99301.22
2018-07-15T09:47:33.234Z,99301.12
2018-07-15T09:50:02.758Z,99296.36
2018-07-15T09:52:31.297Z,99294.69
2018-07-15T09:54:59.854Z,99296.79
2018-07-15T09:57:28.414Z,99301.84
2018-07-15T10:00:07.848Z,99298.70
2018-07-15T10:02:36.373Z,99296.17
2018-07-15T10:05:04.959Z,99285.13
2018-07-15T10:07:34.567Z,99294.56
2018-07-15T10:10:03.134Z,99287.88
2018-07-15T10:12:31.656Z,99289.59
2018-07-15T10:15:00.497Z,99287.58
2018-07-15T10:17:29.029Z,99288.22
2018-07-15T10:20:04.076Z,99284.91
2018-07-15T10:22:32.800Z,99280.33
2018-07-15T10:25:01.357Z,99279.61
2018-07-15T10:27:29.872Z,99277.42
2018-07-15T10:29:58.417Z,99272.62
2018-07-15T10:32:26.968Z,99276.83
2018-07-15T10:34:55.544Z,99269.25
2018-07-15T10:37:24.069Z,99264.52
2018-07-15T10:39:52.621Z,99265.56
2018-07-15T10:42:21.141Z,99260.99
2018-07-15T10:44:49.696Z,99265.45
2018-07-15T10:47:18.238Z,99254.08
2018-07-15T10:49:54.297Z,99258.16
2018-07-15T10:52:28.658Z,99250.45
2018-07-15T10:55:02.762Z,99244.54
2018-07-15T10:57:34.870Z,99243.55
2018-07-15T11:00:05.535Z,99235.72
2018-07-15T11:02:36.179Z,99234.84
2018-07-15T11:05:07.370Z,99230.48
2018-07-15T11:07:36.026Z,99227.15
2018-07-15T11:10:09.008Z,99214.30
2018-07-15T11:12:43.219Z,99213.91
2018-07-15T11:15:13.998Z,99215.05
2018-07-15T11:17:49.419Z,99218.36
2018-07-15T11:20:22.058Z,99217.48
2018-07-15T11:22:54.143Z,99213.63
2018-07-15T11:25:25.600Z,99201.99
2018-07-15T11:28:00.242Z,99208.53
2018-07-15T11:30:28.980Z,99199.63
2018-07-15T11:33:01.816Z,99196.27
2018-07-15T11:35:35.844Z,99193.02
2018-07-15T11:38:06.205Z,99188.98
2018-07-15T11:40:41.621Z,99185.44
2018-07-15T11:43:11.466Z,99183.71
2018-07-15T11:45:47.102Z,99179.13
2018-07-15T11:48:18.182Z,99179.85
2018-07-15T11:50:46.941Z,99175.84
2018-07-15T11:53:19.819Z,99173.11
2018-07-15T11:55:53.487Z,99169.92
2018-07-15T11:58:28.006Z,99168.56
2018-07-15T12:00:59.699Z,99167.45
2018-07-15T12:03:31.692Z,99163.56
2018-07-15T12:06:01.431Z,99161.68
2018-07-15T12:08:34.615Z,99146.13
2018-07-15T12:11:07.900Z,99144.22
2018-07-15T12:13:40.299Z,99140.39
2018-07-15T12:16:13.644Z,99140.98
2018-07-15T12:18:44.065Z,99146.06
2018-07-15T12:21:14.670Z,99144.48
2018-07-15T12:23:47.021Z,99144.11
2018-07-15T12:26:20.591Z,99142.64
2018-07-15T12:28:52.297Z,99141.92
2018-07-15T12:31:22.009Z,99137.63
2018-07-15T12:33:50.848Z,99141.27
2018-07-15T12:36:25.365Z,99165.45
2018-07-15T12:38:59.611Z,99184.70
2018-07-15T12:41:30.009Z,99162.16
2018-07-15T12:44:02.785Z,99157.02
2018-07-15T12:46:37.546Z,99158.22
2018-07-15T12:49:11.167Z,99174.19
2018-07-15T12:51:43.525Z,99165.69
2018-07-15T12:54:14.217Z,99163.19
2018-07-15T12:56:47.148Z,99159.06
2018-07-15T12:59:18.732Z,99152.34
2018-07-15T13:01:47.449Z,99149.89
2018-07-15T13:04:19.618Z,99150.56
2018-07-15T13:06:51.459Z,99159.73
2018-07-15T13:09:26.183Z,99147.11
2018-07-15T13:12:00.451Z,99152.34
2018-07-15T13:14:32.417Z,99154.47
2018-07-15T13:17:01.699Z,99141.32
2018-07-15T13:19:30.222Z,99138.80
2018-07-15T13:21:58.776Z,99122.68
2018-07-15T13:24:31.810Z,99118.02
2018-07-15T13:27:00.722Z,99120.95
2018-07-15T13:29:29.289Z,99111.51
2018-07-15T13:31:57.909Z,99118.56
2018-07-15T13:34:33.956Z,99123.94
2018-07-15T13:37:02.844Z,99121.83
2018-07-15T13:39:31.474Z,99128.81
2018-07-15T13:42:00.076Z,99131.15
2018-07-15T13:44:28.626Z,99130.13
2018-07-15T13:46:57.185Z,99124.06
2018-07-15T13:49:25.741Z,99122.33
2018-07-15T13:51:54.317Z,99115.98
2018-07-15T13:54:22.863Z,99116.44
2018-07-15T13:56:51.390Z,99113.31
2018-07-15T13:59:19.940Z,99113.73
2018-07-15T14:01:48.474Z,99116.82
2018-07-15T14:04:17.140Z,99125.37
2018-07-15T14:06:45.625Z,99124.55
2018-07-15T14:09:14.185Z,99117.56
2018-07-15T14:11:42.721Z,99113.88
2018-07-15T14:14:11.297Z,99109.25
2018-07-15T14:16:41.311Z,99113.03
2018-07-15T14:19:09.902Z,99109.72
2018-07-15T14:21:38.696Z,99113.14
2018-07-15T14:24:07.255Z,99110.80
2018-07-15T14:26:35.876Z,99104.52
2018-07-15T14:29:04.453Z,99099.03
2018-07-15T14:31:33.017Z,99095.94
2018-07-15T14:34:01.593Z,99098.91
2018-07-15T14:36:30.096Z,99097.77
2018-07-15T14:38:58.648Z,99103.25
2018-07-15T14:41:27.185Z,99095.90
2018-07-15T14:43:55.756Z,99097.89
2018-07-15T14:46:24.317Z,99104.62
2018-07-15T14:48:52.869Z,99115.22
2018-07-15T14:51:21.383Z,99131.17
2018-07-15T14:53:49.935Z,99130.86
2018-07-15T14:56:18.513Z,99137.59
2018-07-15T14:58:47.068Z,99142.36
2018-07-15T15:01:15.581Z,99154.95
2018-07-15T15:03:44.128Z,99162.09
2018-07-15T15:06:12.628Z,99166.12
2018-07-15T15:08:41.181Z,99185.36
2018-07-15T15:11:09.705Z,99181.87
2018-07-15T15:13:38.966Z,99178.97
2018-07-15T15:16:07.497Z,99183.55
2018-07-15T15:18:36.046Z,99188.41
2018-07-15T15:21:04.572Z,99178.37
2018-07-15T15:23:33.119Z,99177.39
2018-07-15T15:26:01.644Z,99169.09
2018-07-15T15:28:30.485Z,99159.93
2018-07-15T15:30:58.993Z,99155.06
2018-07-15T15:33:27.541Z,99140.29
2018-07-15T15:35:56.125Z,99141.83
2018-07-15T15:38:24.808Z,99141.73
2018-07-15T15:40:53.344Z,99141.08
2018-07-15T15:43:22.765Z,99135.67
2018-07-15T15:45:51.308Z,99127.80
2018-07-15T15:48:19.865Z,99120.08
2018-07-15T15:50:48.404Z,99114.69
2018-07-15T15:53:16.985Z,99106.67
2018-07-15T15:55:45.561Z,99108.59
2018-07-15T15:58:14.204Z,99120.99
2018-07-15T16:00:42.720Z,99117.19
2018-07-15T16:03:11.265Z,99123.57
2018-07-15T16:05:40.072Z,99125.72
2018-07-15T16:08:09.084Z,99130.81
2018-07-15T16:10:37.654Z,99135.29
2018-07-15T16:13:06.411Z,99140.06
2018-07-15T16:15:35.009Z,99144.98
2018-07-15T16:18:03.823Z,99146.06
2018-07-15T16:20:32.418Z,99148.03
2018-07-15T16:23:01.099Z,99144.75
2018-07-15T16:25:29.669Z,99140.89
2018-07-15T16:27:58.206Z,99151.14
2018-07-15T16:30:26.768Z,99158.89
2018-07-15T16:32:55.313Z,99170.97
2018-07-15T16:35:24.182Z,99171.93
2018-07-15T16:37:53.683Z,99180.95
2018-07-15T16:40:22.299Z,99180.98
2018-07-15T16:42:50.968Z,99182.39
2018-07-15T16:45:19.857Z,99195.52
2018-07-15T16:47:49.111Z,99204.11
2018-07-15T16:50:17.721Z,99216.31
2018-07-15T16:52:47.421Z,99221.27
2018-07-15T16:55:17.580Z,99232.38
2018-07-15T16:57:46.205Z,99233.05
2018-07-15T17:00:14.772Z,99226.46
2018-07-15T17:02:44.240Z,99221.75
2018-07-15T17:05:14.340Z,99216.03
2018-07-15T17:07:44.379Z,99211.02
2018-07-15T17:10:14.900Z,99210.83
2018-07-15T17:12:43.889Z,99203.33
2018-07-15T17:15:12.862Z,99201.52
2018-07-15T17:17:42.285Z,99197.86
2018-07-15T17:20:11.979Z,99208.77
2018-07-15T17:22:40.469Z,99212.19
2018-07-15T17:25:09.401Z,99213.44
2018-07-15T17:27:39.949Z,99207.33
2018-07-15T17:30:09.654Z,99209.60
2018-07-15T17:32:38.196Z,99205.80
2018-07-15T17:35:07.646Z,99200.36
2018-07-15T17:37:36.432Z,99198.89
2018-07-15T17:40:06.268Z,99199.33
2018-07-15T17:42:34.875Z,99198.09
2018-07-15T17:45:03.423Z,99194.24
2018-07-15T17:47:31.937Z,99192.86
2018-07-15T17:50:00.528Z,99192.94
2018-07-15T17:52:29.054Z,99189.62
2018-07-15T17:54:57.605Z,99205.81
2018-07-15T17:57:26.140Z,99205.66
2018-07-15T17:59:54.688Z,99200.43
2018-07-15T18:02:23.229Z,99202.22
2018-07-15T18:04:51.759Z,99202.10
2018-07-15T18:07:20.309Z,99203.09
2018-07-15T18:09:48.813Z,99202.36
2018-07-15T18:12:17.384Z,99207.42
2018-07-15T18:14:46.013Z,99198.95
2018-07-15T18:17:14.656Z,99198.34
2018-07-15T18:19:43.314Z,99197.52
2018-07-15T18:22:12.359Z,99189.92
2018-07-15T18:24:40.910Z,99187.63
2018-07-15T18:27:09.452Z,99181.62
2018-07-15T18:29:38.547Z,99177.19
2018-07-15T18:32:07.173Z,99172.56
2018-07-15T18:34:35.764Z,99167.69
2018-07-15T18:37:04.341Z,99166.00
2018-07-15T18:39:32.861Z,99164.25
2018-07-15T18:42:01.495Z,99156.63
2018-07-15T18:44:30.393Z,99154.05
2018-07-15T18:46:59.977Z,99142.64
2018-07-15T18:49:28.697Z,99142.50
2018-07-15T18:51:57.261Z,99135.71
2018-07-15T18:54:25.806Z,99133.48
2018-07-15T18:56:54.376Z,99124.97
2018-07-15T18:59:23.673Z,99131.97
2018-07-15T19:01:56.018Z,99132.87
2018-07-15T19:04:27.487Z,99133.56
2018-07-15T19:06:59.325Z,99140.98
2018-07-15T19:09:28.013Z,99143.62
2018-07-15T19:12:01.306Z,99148.17
2018-07-15T19:14:31.075Z,99146.75
2018-07-15T19:17:00.304Z,99141.25
2018-07-15T19:19:31.602Z,99148.71
2018-07-15T19:22:01.052Z,99149.28
2018-07-15T19:24:33.523Z,99153.28
2018-07-15T19:27:02.999Z,99149.95
2018-07-15T19:29:36.024Z,99154.79
2018-07-15T19:32:07.264Z,99149.77
2018-07-15T19:34:36.969Z,99147.48
2018-07-15T19:37:07.410Z,99156.52
2018-07-15T19:39:39.360Z,99168.83
2018-07-15T19:42:10.312Z,99173.01
2018-07-15T19:44:41.268Z,99179.50
2018-07-15T19:47:11.017Z,99181.00
2018-07-15T19:49:39.788Z,99174.69
2018-07-15T19:52:11.263Z,99182.83
2018-07-15T19:54:44.774Z,99187.34
2018-07-15T19:57:14.751Z,99193.76
2018-07-15T19:59:43.346Z,99197.22
2018-07-15T20:02:12.291Z,99195.52
2018-07-15T20:04:40.837Z,99190.00
2018-07-15T20:07:09.433Z,99194.23
2018-07-15T20:09:38.794Z,99189.75
2018-07-15T20:12:07.629Z,99185.70
2018-07-15T20:14:36.272Z,99187.75
2018-07-15T20:17:04.857Z,99195.59
2018-07-15T20:19:33.406Z,99191.50
2018-07-15T20:22:02.160Z,99185.76
2018-07-15T20:24:30.704Z,99186.97
2018-07-15T20:26:59.283Z,99191.83
2018-07-15T20:29:28.517Z,99204.17
2018-07-15T20:31:57.081Z,99190.46
2018-07-15T20:34:25.790Z,99191.83
2018-07-15T20:36:58.245Z,99195.44
2018-07-15T20:39:30.665Z,99192.63
2018-07-15T20:42:00.428Z,99190.30
2018-07-15T20:44:34.987Z,99197.67
2018-07-15T20:47:08.271Z,99200.27
2018-07-15T20:49:43.441Z,99201.82
2018-07-15T20:52:14.138Z,99199.80
2018-07-15T20:54:48.035Z,99213.77
2018-07-15T20:57:17.301Z,99215.65
2018-07-15T20:59:45.902Z,99206.48
2018-07-15T21:02:15.463Z,99203.89
2018-07-15T21:04:51.271Z,99208.10
2018-07-15T21:07:24.334Z,99217.67
2018-07-15T21:10:00.299Z,99218.14
2018-07-15T21:12:31.212Z,99223.12
2018-07-15T21:15:01.256Z,99213.31
2018-07-15T21:17:37.402Z,99218.34
2018-07-15T21:20:08.146Z,99221.33
2018-07-15T21:22:37.667Z,99230.14
2018-07-15T21:25:09.628Z,99227.12
2018-07-15T21:27:38.776Z,99226.80
2018-07-15T21:30:07.851Z,99227.31
2018-07-15T21:32:37.189Z,99235.89
2018-07-15T21:35:07.465Z,99234.55
2018-07-15T21:37:41.882Z,99235.95
2018-07-15T21:40:17.359Z,99236.63
2018-07-15T21:42:50.591Z,99230.04
2018-07-15T21:45:21.431Z,99230.36
2018-07-15T21:47:51.020Z,99231.41
2018-07-15T21:50:20.465Z,99229.75
2018-07-15T21:52:55.153Z,99229.56
2018-07-15T21:55:25.072Z,99231.36
2018-07-15T21:57:55.693Z,99225.36
2018-07-15T22:00:25.013Z,99229.39
2018-07-15T22:02:55.167Z,99230.38
2018-07-15T22:05:24.023Z,99228.36
2018-07-15T22:08:06.475Z,99232.91
2018-07-15T22:10:42.418Z,99231.28
2018-07-15T22:13:12.024Z,99237.55
2018-07-15T22:15:42.214Z,99231.19
2018-07-15T22:18:16.423Z,99236.52
2018-07-15T22:20:49.015Z,99236.29
2018-07-15T22:23:22.477Z,99239.41
2018-07-15T22:25:55.734Z,99233.41
2018-07-15T22:28:26.432Z,99234.16
2018-07-15T22:31:02.045Z,99233.05
2018-07-15T22:33:32.677Z,99236.26
2018-07-15T22:36:05.096Z,99233.46
2018-07-15T22:38:34.261Z,99228.80
2018-07-15T22:41:03.974Z,99228.95
2018-07-15T22:43:32.503Z,99230.55
2018-07-15T22:46:01.152Z,99222.17
2018-07-15T22:48:29.721Z,99220.81
2018-07-15T22:50:58.292Z,99216.52
2018-07-15T22:53:26.814Z,99214.78
2018-07-15T22:55:55.645Z,99216.75
2018-07-15T22:58:24.195Z,99217.44
2018-07-15T23:00:52.914Z,99220.05
2018-07-15T23:03:21.449Z,99227.45
2018-07-15T23:06:01.601Z,99223.25
2018-07-15T23:08:31.389Z,99222.84
2018-07-15T23:11:00.101Z,99225.63
2018-07-15T23:13:28.638Z,99223.47
2018-07-15T23:15:57.203Z,99228.70
2018-07-15T23:18:25.744Z,99232.77
2018-07-15T23:20:54.329Z,99234.00
2018-07-15T23:23:22.844Z,99226.04
2018-07-15T23:25:51.404Z,99221.51
2018-07-15T23:28:20.800Z,99228.71
2018-07-15T23:30:49.357Z,99234.44
2018-07-15T23:33:17.872Z,99237.09
2018-07-15T23:35:46.481Z,99232.45
2018-07-15T23:38:14.997Z,99225.02
2018-07-15T23:40:43.537Z,99218.99
2018-07-15T23:43:12.040Z,99221.23
2018-07-15T23:45:40.836Z,99222.64
2018-07-15T23:48:09.385Z,99219.14
2018-07-15T23:50:37.917Z,99221.47
2018-07-15T23:53:06.500Z,99220.40
2018-07-15T23:55:35.132Z,99219.98
2018-07-15T23:58:03.656Z,99213.19
